TDPD

Melville Hall Airport

Marigot, Dominica
TAF TDPD 211700Z 2118/2218 11010KT 9999 SCT018
Issued Valid From Valid To
Jul-21 @ 17:00 UTC
(6 hours ago)
Jul-21 @ 18:00 UTC
(5 hours ago)
Jul-22 @ 18:00 UTC
(in 19 hours)
Jul-21 @ 18:00 to Jul-22 @ 18:00
TAF TDPD 211700Z 2118/2218 11010KT 9999 SCT018
Wind Visibility Clouds
110° at 10 knots 10,000+ meters
  • Scattered at 1,800' AGL
TAF TDPD 211700Z 2118/2218 11010KT 9999 SCT018
Issued Jul-21 @ 17:00 UTC
(6 hours ago)
Valid From Jul-21 @ 18:00 UTC
(5 hours ago)
Valid To Jul-22 @ 18:00 UTC
(in 19 hours)
Jul-21 @ 18:00 - Jul-22 @ 18:00
Wind Visibility
110° at 10 knots 10,000+ meters
Clouds
  • Scattered at 1,800' AGL